CheckWX is a tool to help pilots better visualize weather data.  It is not intended as a substitute for an official pre-flight weather briefing.

23:48:38 UTC

KLEE TAF
Leesburg International Airport
Leesburg, Florida, USA
KLEE 222320Z 2300/2324 28010KT P6SM FEW040 SCT100 FM230300 32006KT P6SM FEW100 SCT250 FM230900 36006KT P6SM SCT250 FM231600 03010KT P6SM SCT080

Oct-23@
00:00 UTC

Oct-23 @ 00:00 UTC

Oct-23@
03:00 UTC

Oct-23 @ 03:00 UTC

KLEE 222320Z 2300/2324 28010KT P6SM FEW040 SCT100
Wind
  • 280° at 10 KTS
Cloud Levels
  • Few at 4,000' AGL
  • Scattered at 10,000' AGL

Oct-23@
03:00 UTC

Oct-23 @ 03:00 UTC

Oct-23@
09:00 UTC

Oct-23 @ 09:00 UTC

FM230300 32006KT P6SM FEW100 SCT250

From

From Standard forecast or significant change

Wind
  • 320° at 6 KTS
Cloud Levels
  • Few at 10,000' AGL
  • Scattered at 25,000' AGL

Oct-23@
09:00 UTC

Oct-23 @ 09:00 UTC

Oct-23@
16:00 UTC

Oct-23 @ 16:00 UTC

FM230900 36006KT P6SM SCT250

From

From Standard forecast or significant change

Wind
  • 360° at 6 KTS
Cloud Levels
  • Scattered at 25,000' AGL

Oct-23@
16:00 UTC

Oct-23 @ 16:00 UTC

Oct-24@
00:00 UTC

Oct-24 @ 00:00 UTC

FM231600 03010KT P6SM SCT080

From

From Standard forecast or significant change

Wind
  • 030° at 10 KTS
Cloud Levels
  • Scattered at 8,000' AGL